sensor_id;sensor_type;location;lat;lon;timestamp;pressure;altitude;pressure_sealevel;temperature;humidity
65157;BME280;52745;49.794;18.258;2022-07-29T00:02:21;99042.31;;;17.21;74.34
65157;BME280;52745;49.794;18.258;2022-07-29T00:04:48;99043.38;;;17.20;74.18
65157;BME280;52745;49.794;18.258;2022-07-29T00:07:14;99048.78;;;17.20;74.12
65157;BME280;52745;49.794;18.258;2022-07-29T00:09:41;99050.69;;;17.20;74.21
65157;BME280;52745;49.794;18.258;2022-07-29T00:12:08;99044.75;;;17.17;74.40
65157;BME280;52745;49.794;18.258;2022-07-29T00:14:35;99046.91;;;17.15;74.75
65157;BME280;52745;49.794;18.258;2022-07-29T00:17:02;99042.63;;;17.14;74.85
65157;BME280;52745;49.794;18.258;2022-07-29T00:19:30;99042.34;;;17.11;75.07
65157;BME280;52745;49.794;18.258;2022-07-29T00:21:56;99040.47;;;17.11;75.29
65157;BME280;52745;49.794;18.258;2022-07-29T00:24:23;99041.28;;;17.07;75.67
65157;BME280;52745;49.794;18.258;2022-07-29T00:26:49;99048.03;;;17.04;76.64
65157;BME280;52745;49.794;18.258;2022-07-29T00:29:16;99041.06;;;16.98;76.77
65157;BME280;52745;49.794;18.258;2022-07-29T00:31:42;99041.59;;;16.95;77.01
65157;BME280;52745;49.794;18.258;2022-07-29T00:34:09;99041.59;;;16.95;77.13
65157;BME280;52745;49.794;18.258;2022-07-29T00:36:56;99037.03;;;16.90;77.76
65157;BME280;52745;49.794;18.258;2022-07-29T00:39:26;99037.28;;;16.89;77.37
65157;BME280;52745;49.794;18.258;2022-07-29T00:41:52;99036.25;;;16.80;77.60
65157;BME280;52745;49.794;18.258;2022-07-29T00:44:18;99036.25;;;16.74;77.31
65157;BME280;52745;49.794;18.258;2022-07-29T00:46:45;99034.38;;;16.70;77.51
65157;BME280;52745;49.794;18.258;2022-07-29T00:49:12;99034.09;;;16.66;77.92
65157;BME280;52745;49.794;18.258;2022-07-29T00:51:39;99034.34;;;16.65;77.71
65157;BME280;52745;49.794;18.258;2022-07-29T00:54:05;99030.34;;;16.57;78.38
65157;BME280;52745;49.794;18.258;2022-07-29T00:56:33;99027.09;;;16.55;78.65
65157;BME280;52745;49.794;18.258;2022-07-29T00:59:00;99024.97;;;16.52;78.90
65157;BME280;52745;49.794;18.258;2022-07-29T01:01:27;99023.88;;;16.53;79.01
65157;BME280;52745;49.794;18.258;2022-07-29T01:03:54;99021.19;;;16.53;79.07
65157;BME280;52745;49.794;18.258;2022-07-29T01:06:21;99029.00;;;16.54;79.14
65157;BME280;52745;49.794;18.258;2022-07-29T01:08:48;99022.81;;;16.54;79.38
65157;BME280;52745;49.794;18.258;2022-07-29T01:11:16;99026.31;;;16.54;79.14
65157;BME280;52745;49.794;18.258;2022-07-29T01:13:44;99025.50;;;16.54;79.22
65157;BME280;52745;49.794;18.258;2022-07-29T01:16:24;99026.03;;;16.51;79.50
65157;BME280;52745;49.794;18.258;2022-07-29T01:18:55;99022.28;;;16.52;79.79
65157;BME280;52745;49.794;18.258;2022-07-29T01:32:11;99020.94;;;16.39;79.96
65157;BME280;52745;49.794;18.258;2022-07-29T01:34:52;99021.75;;;16.40;80.34
65157;BME280;52745;49.794;18.258;2022-07-29T01:37:24;99018.53;;;16.43;80.26
65157;BME280;52745;49.794;18.258;2022-07-29T01:39:54;99021.22;;;16.43;80.44
65157;BME280;52745;49.794;18.258;2022-07-29T01:42:37;99023.34;;;16.46;80.26
65157;BME280;52745;49.794;18.258;2022-07-29T01:45:18;99017.69;;;16.42;80.05
65157;BME280;52745;49.794;18.258;2022-07-29T01:50:41;99018.53;;;16.32;80.69
65157;BME280;52745;49.794;18.258;2022-07-29T01:53:12;99007.22;;;16.25;81.38
65157;BME280;52745;49.794;18.258;2022-07-29T01:55:43;99012.88;;;16.19;81.72
65157;BME280;52745;49.794;18.258;2022-07-29T01:58:11;99015.84;;;16.17;81.77
65157;BME280;52745;49.794;18.258;2022-07-29T02:00:40;99002.63;;;16.16;82.03
65157;BME280;52745;49.794;18.258;2022-07-29T02:03:11;99006.41;;;16.14;81.96
65157;BME280;52745;49.794;18.258;2022-07-29T02:05:41;98997.00;;;16.12;82.07
65157;BME280;52745;49.794;18.258;2022-07-29T02:08:09;99007.22;;;16.05;82.51
65157;BME280;52745;49.794;18.258;2022-07-29T02:10:38;99011.53;;;16.01;82.94
65157;BME280;52745;49.794;18.258;2022-07-29T02:13:07;99004.53;;;16.00;82.49
65157;BME280;52745;49.794;18.258;2022-07-29T02:15:35;99003.97;;;16.03;82.16
65157;BME280;52745;49.794;18.258;2022-07-29T02:18:05;99013.41;;;16.05;82.20
65157;BME280;52745;49.794;18.258;2022-07-29T02:20:34;99006.69;;;16.08;82.45
65157;BME280;52745;49.794;18.258;2022-07-29T02:23:02;99009.91;;;16.05;82.74
65157;BME280;52745;49.794;18.258;2022-07-29T02:25:29;99008.56;;;16.02;82.80
65157;BME280;52745;49.794;18.258;2022-07-29T02:27:58;99000.22;;;15.93;83.35
65157;BME280;52745;49.794;18.258;2022-07-29T02:30:27;99004.50;;;15.89;83.49
65157;BME280;52745;49.794;18.258;2022-07-29T02:32:55;99009.88;;;15.89;83.38
65157;BME280;52745;49.794;18.258;2022-07-29T02:35:22;99005.06;;;15.86;83.74
65157;BME280;52745;49.794;18.258;2022-07-29T02:37:50;99003.44;;;15.85;84.06
65157;BME280;52745;49.794;18.258;2022-07-29T02:40:38;99008.00;;;15.85;83.61
65157;BME280;52745;49.794;18.258;2022-07-29T02:43:06;99001.56;;;15.86;83.79
65157;BME280;52745;49.794;18.258;2022-07-29T02:45:33;99004.78;;;15.83;83.53
65157;BME280;52745;49.794;18.258;2022-07-29T02:48:06;98999.66;;;15.76;82.99
65157;BME280;52745;49.794;18.258;2022-07-29T02:50:50;99002.34;;;15.71;83.20
65157;BME280;52745;49.794;18.258;2022-07-29T02:53:20;98993.16;;;15.67;83.61
65157;BME280;52745;49.794;18.258;2022-07-29T02:55:55;98999.34;;;15.57;83.47
65157;BME280;52745;49.794;18.258;2022-07-29T02:58:38;98989.91;;;15.49;83.67
65157;BME280;52745;49.794;18.258;2022-07-29T03:01:11;98988.84;;;15.45;83.93
65157;BME280;52745;49.794;18.258;2022-07-29T03:03:42;98986.66;;;15.37;84.25
65157;BME280;52745;49.794;18.258;2022-07-29T03:06:12;98991.25;;;15.42;84.46
65157;BME280;52745;49.794;18.258;2022-07-29T03:08:39;98988.81;;;15.35;84.50
65157;BME280;52745;49.794;18.258;2022-07-29T03:11:07;98984.47;;;15.29;84.55
65157;BME280;52745;49.794;18.258;2022-07-29T03:13:35;98987.44;;;15.32;84.64
65157;BME280;52745;49.794;18.258;2022-07-29T03:16:02;98993.09;;;15.31;84.27
65157;BME280;52745;49.794;18.258;2022-07-29T03:18:31;98999.53;;;15.25;84.70
65157;BME280;52745;49.794;18.258;2022-07-29T03:20:58;98997.13;;;15.23;84.73
65157;BME280;52745;49.794;18.258;2022-07-29T03:23:24;99004.09;;;15.24;85.02
65157;BME280;52745;49.794;18.258;2022-07-29T03:25:54;99001.94;;;15.26;85.10
65157;BME280;52745;49.794;18.258;2022-07-29T03:28:21;98995.78;;;15.26;84.58
65157;BME280;52745;49.794;18.258;2022-07-29T03:30:49;98997.38;;;15.27;84.35
65157;BME280;52745;49.794;18.258;2022-07-29T03:33:15;98995.78;;;15.31;84.69
65157;BME280;52745;49.794;18.258;2022-07-29T03:35:42;98994.19;;;15.35;84.56
65157;BME280;52745;49.794;18.258;2022-07-29T03:38:09;98994.47;;;15.39;84.07
65157;BME280;52745;49.794;18.258;2022-07-29T03:40:40;98986.91;;;15.41;84.12
65157;BME280;52745;49.794;18.258;2022-07-29T03:43:09;98986.13;;;15.40;84.01
65157;BME280;52745;49.794;18.258;2022-07-29T03:45:38;98992.03;;;15.37;84.31
65157;BME280;52745;49.794;18.258;2022-07-29T03:48:08;99000.91;;;15.38;84.33
65157;BME280;52745;49.794;18.258;2022-07-29T03:50:37;99002.25;;;15.40;84.63
65157;BME280;52745;49.794;18.258;2022-07-29T03:53:03;98997.16;;;15.44;84.47
65157;BME280;52745;49.794;18.258;2022-07-29T03:55:36;98996.06;;;15.40;84.22
65157;BME280;52745;49.794;18.258;2022-07-29T03:58:04;99004.94;;;15.40;84.57
65157;BME280;52745;49.794;18.258;2022-07-29T04:00:31;99000.09;;;15.42;84.22
65157;BME280;52745;49.794;18.258;2022-07-29T04:02:58;98997.16;;;15.49;84.39
65157;BME280;52745;49.794;18.258;2022-07-29T04:05:24;99001.22;;;15.57;84.23
65157;BME280;52745;49.794;18.258;2022-07-29T04:07:52;98993.69;;;15.64;84.21
65157;BME280;52745;49.794;18.258;2022-07-29T04:10:18;98995.91;;;15.72;84.26
65157;BME280;52745;49.794;18.258;2022-07-29T04:12:45;99000.47;;;15.77;83.30
65157;BME280;52745;49.794;18.258;2022-07-29T04:15:11;99000.72;;;15.80;82.67
65157;BME280;52745;49.794;18.258;2022-07-29T04:17:38;98993.47;;;15.86;82.87
65157;BME280;52745;49.794;18.258;2022-07-29T04:20:05;98996.44;;;15.95;82.70
65157;BME280;52745;49.794;18.258;2022-07-29T04:22:32;99001.28;;;16.03;82.14
65157;BME280;52745;49.794;18.258;2022-07-29T04:24:58;99009.38;;;16.13;82.00
65157;BME280;52745;49.794;18.258;2022-07-29T04:27:25;99006.13;;;16.21;81.63
65157;BME280;52745;49.794;18.258;2022-07-29T04:29:52;99004.50;;;16.30;80.90
65157;BME280;52745;49.794;18.258;2022-07-29T04:32:18;98999.09;;;16.35;80.42
65157;BME280;52745;49.794;18.258;2022-07-29T04:34:45;99005.28;;;16.46;79.62
65157;BME280;52745;49.794;18.258;2022-07-29T04:37:12;98998.81;;;16.52;79.25
65157;BME280;52745;49.794;18.258;2022-07-29T04:39:39;98997.72;;;16.64;79.16
65157;BME280;52745;49.794;18.258;2022-07-29T04:42:05;99007.91;;;16.77;79.67
65157;BME280;52745;49.794;18.258;2022-07-29T04:44:32;98993.09;;;16.85;78.54
65157;BME280;52745;49.794;18.258;2022-07-29T04:46:58;98993.09;;;16.90;77.95
65157;BME280;52745;49.794;18.258;2022-07-29T04:49:25;98999.53;;;16.89;77.59
65157;BME280;52745;49.794;18.258;2022-07-29T04:51:52;99005.22;;;16.92;78.00
65157;BME280;52745;49.794;18.258;2022-07-29T04:54:18;98999.00;;;16.92;77.68
65157;BME280;52745;49.794;18.258;2022-07-29T04:56:45;99002.75;;;17.01;77.64
65157;BME280;52745;49.794;18.258;2022-07-29T04:59:12;99004.88;;;17.04;76.88
65157;BME280;52745;49.794;18.258;2022-07-29T05:01:38;98996.44;;;17.21;77.10
65157;BME280;52745;49.794;18.258;2022-07-29T05:04:05;98988.38;;;17.21;76.34
65157;BME280;52745;49.794;18.258;2022-07-29T05:06:32;98992.88;;;17.31;76.39
65157;BME280;52745;49.794;18.258;2022-07-29T05:08:59;98992.78;;;17.51;76.73
65157;BME280;52745;49.794;18.258;2022-07-29T05:11:26;98988.31;;;17.71;76.87
65157;BME280;52745;49.794;18.258;2022-07-29T05:13:53;98985.28;;;17.77;75.16
65157;BME280;52745;49.794;18.258;2022-07-29T05:16:19;98985.06;;;17.74;74.22
65157;BME280;52745;49.794;18.258;2022-07-29T05:18:45;98987.19;;;17.77;74.56
65157;BME280;52745;49.794;18.258;2022-07-29T05:21:12;98978.38;;;17.66;74.84
65157;BME280;52745;49.794;18.258;2022-07-29T05:23:38;98987.13;;;17.92;73.97
65157;BME280;52745;49.794;18.258;2022-07-29T05:26:05;98984.88;;;17.99;73.90
65157;BME280;52745;49.794;18.258;2022-07-29T05:28:34;98999.44;;;18.09;74.19
65157;BME280;52745;49.794;18.258;2022-07-29T05:31:01;98994.03;;;18.09;73.07
65157;BME280;52745;49.794;18.258;2022-07-29T05:33:28;99006.19;;;18.06;73.39
65157;BME280;52745;49.794;18.258;2022-07-29T05:35:54;99012.13;;;18.37;72.85
65157;BME280;52745;49.794;18.258;2022-07-29T05:38:21;99008.25;;;18.73;72.05
65157;BME280;52745;49.794;18.258;2022-07-29T05:40:47;99011.75;;;19.21;70.91
65157;BME280;52745;49.794;18.258;2022-07-29T05:43:14;99005.78;;;19.25;69.19
65157;BME280;52745;49.794;18.258;2022-07-29T05:45:40;99000.44;;;19.38;67.99
65157;BME280;52745;49.794;18.258;2022-07-29T05:48:07;99005.03;;;19.19;68.88
65157;BME280;52745;49.794;18.258;2022-07-29T05:50:33;99014.09;;;19.28;68.74
65157;BME280;52745;49.794;18.258;2022-07-29T05:52:59;99015.13;;;19.13;69.14
65157;BME280;52745;49.794;18.258;2022-07-29T05:55:26;99012.38;;;19.56;67.73
65157;BME280;52745;49.794;18.258;2022-07-29T05:57:52;99009.91;;;19.79;66.81
65157;BME280;52745;49.794;18.258;2022-07-29T06:00:19;99007.97;;;19.98;66.11
65157;BME280;52745;49.794;18.258;2022-07-29T06:02:45;99006.13;;;20.13;65.49
65157;BME280;52745;49.794;18.258;2022-07-29T06:05:12;99004.88;;;20.24;65.74
65157;BME280;52745;49.794;18.258;2022-07-29T06:07:39;99000.34;;;20.19;65.55
65157;BME280;52745;49.794;18.258;2022-07-29T06:10:05;99003.50;;;20.08;66.85
65157;BME280;52745;49.794;18.258;2022-07-29T06:12:32;99004.84;;;19.91;67.11
65157;BME280;52745;49.794;18.258;2022-07-29T06:14:58;99005.28;;;19.98;66.57
65157;BME280;52745;49.794;18.258;2022-07-29T06:17:25;99009.34;;;20.15;66.04
65157;BME280;52745;49.794;18.258;2022-07-29T06:19:51;99019.72;;;19.94;67.11
65157;BME280;52745;49.794;18.258;2022-07-29T06:22:18;99014.66;;;19.49;68.56
65157;BME280;52745;49.794;18.258;2022-07-29T06:24:44;99015.09;;;19.37;68.72
65157;BME280;52745;49.794;18.258;2022-07-29T06:27:11;99010.25;;;19.34;69.03
65157;BME280;52745;49.794;18.258;2022-07-29T06:29:38;99015.69;;;19.53;69.06
65157;BME280;52745;49.794;18.258;2022-07-29T06:32:05;99019.84;;;19.83;68.00
65157;BME280;52745;49.794;18.258;2022-07-29T06:34:31;99027.03;;;19.93;67.32
65157;BME280;52745;49.794;18.258;2022-07-29T06:36:58;99018.25;;;20.01;67.34
65157;BME280;52745;49.794;18.258;2022-07-29T06:39:24;99028.94;;;20.25;67.05
65157;BME280;52745;49.794;18.258;2022-07-29T06:41:51;99034.22;;;20.17;66.63
65157;BME280;52745;49.794;18.258;2022-07-29T06:44:18;99037.25;;;20.15;66.43
65157;BME280;52745;49.794;18.258;2022-07-29T06:46:45;99025.78;;;20.04;66.87
65157;BME280;52745;49.794;18.258;2022-07-29T06:49:15;99028.91;;;20.12;66.85
65157;BME280;52745;49.794;18.258;2022-07-29T06:51:42;99026.69;;;20.33;66.09
65157;BME280;52745;49.794;18.258;2022-07-29T06:54:08;99030.94;;;20.53;66.47
65157;BME280;52745;49.794;18.258;2022-07-29T06:56:35;99036.00;;;20.59;65.44
65157;BME280;52745;49.794;18.258;2022-07-29T06:59:05;99026.09;;;20.50;64.97
65157;BME280;52745;49.794;18.258;2022-07-29T07:01:32;99029.97;;;20.62;66.17
65157;BME280;52745;49.794;18.258;2022-07-29T07:03:59;99027.97;;;20.82;65.45
65157;BME280;52745;49.794;18.258;2022-07-29T07:06:25;99036.63;;;20.84;65.17
65157;BME280;52745;49.794;18.258;2022-07-29T07:08:53;99031.69;;;21.00;64.80
65157;BME280;52745;49.794;18.258;2022-07-29T07:11:20;99024.88;;;20.88;64.08
65157;BME280;52745;49.794;18.258;2022-07-29T07:13:46;99027.09;;;20.54;64.75
65157;BME280;52745;49.794;18.258;2022-07-29T07:16:13;99029.28;;;20.57;65.33
65157;BME280;52745;49.794;18.258;2022-07-29T07:18:39;99020.53;;;20.60;65.44
65157;BME280;52745;49.794;18.258;2022-07-29T07:21:06;99014.81;;;20.61;65.31
65157;BME280;52745;49.794;18.258;2022-07-29T07:23:33;99020.53;;;20.74;65.20
65157;BME280;52745;49.794;18.258;2022-07-29T07:26:00;99025.78;;;20.84;64.15
65157;BME280;52745;49.794;18.258;2022-07-29T07:28:26;99016.22;;;21.00;63.52
65157;BME280;52745;49.794;18.258;2022-07-29T07:30:53;99026.47;;;21.17;63.15
65157;BME280;52745;49.794;18.258;2022-07-29T07:33:19;99028.16;;;21.41;62.39
65157;BME280;52745;49.794;18.258;2022-07-29T07:35:47;99023.91;;;21.85;60.86
65157;BME280;52745;49.794;18.258;2022-07-29T07:38:13;99022.56;;;22.41;59.17
65157;BME280;52745;49.794;18.258;2022-07-29T07:40:40;99019.28;;;23.59;57.57
65157;BME280;52745;49.794;18.258;2022-07-29T07:43:07;99025.25;;;25.08;53.15
65157;BME280;52745;49.794;18.258;2022-07-29T07:45:34;99024.13;;;26.22;48.74
65157;BME280;52745;49.794;18.258;2022-07-29T07:48:03;99016.22;;;27.53;46.33
65157;BME280;52745;49.794;18.258;2022-07-29T07:50:29;99020.88;;;28.49;42.89
65157;BME280;52745;49.794;18.258;2022-07-29T07:52:56;99019.13;;;28.73;42.65
65157;BME280;52745;49.794;18.258;2022-07-29T07:55:24;99025.03;;;29.38;42.01
65157;BME280;52745;49.794;18.258;2022-07-29T07:57:52;99021.06;;;29.20;40.39
65157;BME280;52745;49.794;18.258;2022-07-29T08:00:18;99014.69;;;28.84;41.34
65157;BME280;52745;49.794;18.258;2022-07-29T08:02:45;99019.09;;;28.41;43.25
65157;BME280;52745;49.794;18.258;2022-07-29T08:05:12;99021.44;;;29.38;41.21
65157;BME280;52745;49.794;18.258;2022-07-29T08:07:44;99015.50;;;30.10;40.16
65157;BME280;52745;49.794;18.258;2022-07-29T08:10:13;99022.97;;;29.70;39.67
65157;BME280;52745;49.794;18.258;2022-07-29T08:12:39;99033.13;;;30.48;38.25
65157;BME280;52745;49.794;18.258;2022-07-29T08:15:07;99026.81;;;30.05;38.74
65157;BME280;52745;49.794;18.258;2022-07-29T08:17:33;99034.00;;;29.90;39.43
65157;BME280;52745;49.794;18.258;2022-07-29T08:20:00;99030.50;;;30.55;38.54
65157;BME280;52745;49.794;18.258;2022-07-29T08:22:27;99028.41;;;30.06;38.37
65157;BME280;52745;49.794;18.258;2022-07-29T08:24:53;99027.84;;;29.42;39.42
65157;BME280;52745;49.794;18.258;2022-07-29T08:27:21;99030.53;;;29.58;39.79
65157;BME280;52745;49.794;18.258;2022-07-29T08:29:48;99029.41;;;30.60;37.66
65157;BME280;52745;49.794;18.258;2022-07-29T08:32:14;99021.78;;;31.22;36.81
65157;BME280;52745;49.794;18.258;2022-07-29T08:34:41;99022.44;;;30.43;37.55
65157;BME280;52745;49.794;18.258;2022-07-29T08:37:08;99021.53;;;29.41;39.19
65157;BME280;52745;49.794;18.258;2022-07-29T08:39:35;99019.56;;;29.97;38.98
65157;BME280;52745;49.794;18.258;2022-07-29T08:42:01;99022.34;;;31.62;36.92
65157;BME280;52745;49.794;18.258;2022-07-29T08:44:28;99019.19;;;31.63;36.66
65157;BME280;52745;49.794;18.258;2022-07-29T08:46:55;99017.69;;;30.66;37.45
65157;BME280;52745;49.794;18.258;2022-07-29T08:49:21;99019.56;;;30.36;37.57
65157;BME280;52745;49.794;18.258;2022-07-29T08:51:48;99008.88;;;31.03;36.43
65157;BME280;52745;49.794;18.258;2022-07-29T08:54:16;99013.81;;;30.67;37.23
65157;BME280;52745;49.794;18.258;2022-07-29T08:56:44;99016.81;;;30.59;37.99
65157;BME280;52745;49.794;18.258;2022-07-29T08:59:14;99014.50;;;29.79;38.76
65157;BME280;52745;49.794;18.258;2022-07-29T09:01:43;99016.34;;;29.56;40.27
65157;BME280;52745;49.794;18.258;2022-07-29T09:04:11;99013.75;;;30.87;38.20
65157;BME280;52745;49.794;18.258;2022-07-29T09:06:43;99016.00;;;32.66;34.97
65157;BME280;52745;49.794;18.258;2022-07-29T09:09:10;99015.94;;;33.07;33.97
65157;BME280;52745;49.794;18.258;2022-07-29T09:11:37;99011.56;;;31.83;35.06
65157;BME280;52745;49.794;18.258;2022-07-29T09:14:03;99014.72;;;31.85;35.22
65157;BME280;52745;49.794;18.258;2022-07-29T09:16:46;99006.03;;;32.54;33.61
65157;BME280;52745;49.794;18.258;2022-07-29T09:19:20;99004.84;;;31.50;36.15
65157;BME280;52745;49.794;18.258;2022-07-29T09:21:47;99012.41;;;31.30;35.72
65157;BME280;52745;49.794;18.258;2022-07-29T09:24:39;99001.56;;;30.88;36.67
65157;BME280;52745;49.794;18.258;2022-07-29T09:27:25;98996.69;;;31.61;35.83
65157;BME280;52745;49.794;18.258;2022-07-29T09:29:59;98984.84;;;31.91;35.21
65157;BME280;52745;49.794;18.258;2022-07-29T09:32:27;98991.75;;;32.49;34.20
65157;BME280;52745;49.794;18.258;2022-07-29T09:35:14;98990.38;;;31.94;34.33
65157;BME280;52745;49.794;18.258;2022-07-29T09:37:41;98995.13;;;30.57;36.55
65157;BME280;52745;49.794;18.258;2022-07-29T09:40:15;98991.47;;;30.99;36.39
65157;BME280;52745;49.794;18.258;2022-07-29T09:42:42;98982.81;;;30.74;36.68
65157;BME280;52745;49.794;18.258;2022-07-29T09:45:09;98986.03;;;30.80;37.20
65157;BME280;52745;49.794;18.258;2022-07-29T09:47:47;98978.91;;;31.55;36.88
65157;BME280;52745;49.794;18.258;2022-07-29T09:50:15;98988.94;;;31.13;36.38
65157;BME280;52745;49.794;18.258;2022-07-29T09:52:49;98980.06;;;30.74;36.78
65157;BME280;52745;49.794;18.258;2022-07-29T09:55:17;98982.94;;;30.58;36.61
65157;BME280;52745;49.794;18.258;2022-07-29T09:57:45;98974.41;;;30.90;36.32
65157;BME280;52745;49.794;18.258;2022-07-29T10:00:15;98968.16;;;31.80;36.07
65157;BME280;52745;49.794;18.258;2022-07-29T10:02:43;98966.81;;;32.01;35.38
65157;BME280;52745;49.794;18.258;2022-07-29T10:05:26;98964.88;;;32.46;33.89
65157;BME280;52745;49.794;18.258;2022-07-29T10:07:57;98966.41;;;31.65;34.48
65157;BME280;52745;49.794;18.258;2022-07-29T10:10:26;98957.94;;;32.63;33.56
65157;BME280;52745;49.794;18.258;2022-07-29T10:13:01;98962.28;;;31.85;35.39
65157;BME280;52745;49.794;18.258;2022-07-29T10:15:33;98961.63;;;30.09;37.86
65157;BME280;52745;49.794;18.258;2022-07-29T10:18:03;98966.47;;;30.16;38.72
65157;BME280;52745;49.794;18.258;2022-07-29T10:20:29;98961.88;;;30.23;38.85
65157;BME280;52745;49.794;18.258;2022-07-29T10:22:56;98960.50;;;31.36;36.49
65157;BME280;52745;49.794;18.258;2022-07-29T10:25:24;98953.69;;;32.31;34.38
65157;BME280;52745;49.794;18.258;2022-07-29T10:27:51;98955.44;;;31.72;34.64
65157;BME280;52745;49.794;18.258;2022-07-29T10:30:19;98953.66;;;31.90;34.56
65157;BME280;52745;49.794;18.258;2022-07-29T10:32:51;98960.31;;;30.95;35.99
65157;BME280;52745;49.794;18.258;2022-07-29T10:43:58;98953.94;;;29.99;37.81
65157;BME280;52745;49.794;18.258;2022-07-29T10:46:26;98951.94;;;30.38;38.49
65157;BME280;52745;49.794;18.258;2022-07-29T10:49:23;98955.16;;;30.44;37.00
65157;BME280;52745;49.794;18.258;2022-07-29T10:54:39;98951.44;;;29.90;38.42
65157;BME280;52745;49.794;18.258;2022-07-29T10:57:14;98945.66;;;29.56;39.71
65157;BME280;52745;49.794;18.258;2022-07-29T10:59:45;98942.50;;;29.19;39.60
65157;BME280;52745;49.794;18.258;2022-07-29T11:05:07;98947.22;;;29.18;41.67
65157;BME280;52745;49.794;18.258;2022-07-29T11:07:39;98947.13;;;29.69;42.22
65157;BME280;52745;49.794;18.258;2022-07-29T11:15:12;98942.91;;;30.64;37.67
65157;BME280;52745;49.794;18.258;2022-07-29T11:20:42;98936.75;;;29.82;39.23
65157;BME280;52745;49.794;18.258;2022-07-29T11:23:30;98934.41;;;31.30;36.51
65157;BME280;52745;49.794;18.258;2022-07-29T11:28:48;98938.22;;;31.82;35.67
65157;BME280;52745;49.794;18.258;2022-07-29T11:31:19;98921.06;;;32.48;34.55
65157;BME280;52745;49.794;18.258;2022-07-29T11:33:46;98924.06;;;32.25;35.40
65157;BME280;52745;49.794;18.258;2022-07-29T11:36:14;98919.34;;;32.81;34.72
65157;BME280;52745;49.794;18.258;2022-07-29T11:38:41;98915.34;;;31.82;35.54
65157;BME280;52745;49.794;18.258;2022-07-29T11:41:20;98919.69;;;31.49;36.40
65157;BME280;52745;49.794;18.258;2022-07-29T11:43:52;98916.78;;;31.72;36.11
65157;BME280;52745;49.794;18.258;2022-07-29T11:49:07;98915.72;;;32.21;34.64
65157;BME280;52745;49.794;18.258;2022-07-29T11:51:36;98915.28;;;31.78;35.03
65157;BME280;52745;49.794;18.258;2022-07-29T11:54:04;98918.41;;;31.12;36.73
65157;BME280;52745;49.794;18.258;2022-07-29T11:56:31;98918.81;;;30.84;38.10
65157;BME280;52745;49.794;18.258;2022-07-29T11:59:06;98912.63;;;30.41;37.55
65157;BME280;52745;49.794;18.258;2022-07-29T12:01:35;98904.34;;;30.18;38.09
65157;BME280;52745;49.794;18.258;2022-07-29T12:04:05;98918.94;;;29.57;39.83
65157;BME280;52745;49.794;18.258;2022-07-29T12:06:36;98909.66;;;29.45;40.24
65157;BME280;52745;49.794;18.258;2022-07-29T12:09:08;98917.31;;;29.56;40.43
65157;BME280;52745;49.794;18.258;2022-07-29T12:11:36;98916.91;;;29.54;40.07
65157;BME280;52745;49.794;18.258;2022-07-29T12:14:02;98917.84;;;29.81;40.34
65157;BME280;52745;49.794;18.258;2022-07-29T12:16:36;98913.22;;;29.85;40.21
65157;BME280;52745;49.794;18.258;2022-07-29T12:19:04;98909.78;;;30.15;39.74
65157;BME280;52745;49.794;18.258;2022-07-29T12:21:49;98904.00;;;30.69;38.96
65157;BME280;52745;49.794;18.258;2022-07-29T12:24:17;98906.41;;;30.02;41.47
65157;BME280;52745;49.794;18.258;2022-07-29T12:26:52;98902.63;;;29.87;41.68
65157;BME280;52745;49.794;18.258;2022-07-29T12:29:19;98895.03;;;29.80;40.33
65157;BME280;52745;49.794;18.258;2022-07-29T12:31:46;98895.19;;;29.48;40.46
65157;BME280;52745;49.794;18.258;2022-07-29T12:34:15;98894.59;;;29.59;40.85
65157;BME280;52745;49.794;18.258;2022-07-29T12:36:42;98888.38;;;29.62;40.52
65157;BME280;52745;49.794;18.258;2022-07-29T12:39:10;98893.50;;;29.24;41.03
65157;BME280;52745;49.794;18.258;2022-07-29T12:41:37;98886.78;;;29.22;41.73
65157;BME280;52745;49.794;18.258;2022-07-29T12:44:04;98879.00;;;28.88;41.41
65157;BME280;52745;49.794;18.258;2022-07-29T12:46:30;98883.69;;;28.88;42.52
65157;BME280;52745;49.794;18.258;2022-07-29T12:48:57;98886.66;;;28.79;42.19
65157;BME280;52745;49.794;18.258;2022-07-29T12:51:37;98883.38;;;28.74;42.86
65157;BME280;52745;49.794;18.258;2022-07-29T12:54:10;98881.22;;;28.47;43.48
65157;BME280;52745;49.794;18.258;2022-07-29T12:56:37;98879.06;;;28.25;44.23
65157;BME280;52745;49.794;18.258;2022-07-29T12:59:17;98877.47;;;28.24;43.96
65157;BME280;52745;49.794;18.258;2022-07-29T13:01:45;98877.66;;;28.15;44.63
65157;BME280;52745;49.794;18.258;2022-07-29T13:04:30;98880.06;;;27.73;44.91
65157;BME280;52745;49.794;18.258;2022-07-29T13:06:59;98872.78;;;27.64;45.72
65157;BME280;52745;49.794;18.258;2022-07-29T13:09:41;98872.31;;;27.47;45.96
65157;BME280;52745;49.794;18.258;2022-07-29T13:12:11;98874.78;;;27.52;47.33
65157;BME280;52745;49.794;18.258;2022-07-29T13:14:48;98870.75;;;27.61;46.13
65157;BME280;52745;49.794;18.258;2022-07-29T13:17:19;98870.88;;;27.37;46.61
65157;BME280;52745;49.794;18.258;2022-07-29T13:19:51;98860.13;;;27.32;46.56
65157;BME280;52745;49.794;18.258;2022-07-29T13:22:21;98854.66;;;27.32;46.83
65157;BME280;52745;49.794;18.258;2022-07-29T13:24:58;98854.34;;;27.21;46.81
65157;BME280;52745;49.794;18.258;2022-07-29T13:27:30;98854.56;;;27.16;47.82
65157;BME280;52745;49.794;18.258;2022-07-29T13:29:59;98859.84;;;27.21;46.79
65157;BME280;52745;49.794;18.258;2022-07-29T13:32:28;98855.03;;;27.18;46.69
65157;BME280;52745;49.794;18.258;2022-07-29T13:34:55;98850.94;;;27.24;46.97
65157;BME280;52745;49.794;18.258;2022-07-29T13:37:22;98851.97;;;27.48;46.14
65157;BME280;52745;49.794;18.258;2022-07-29T13:39:49;98848.72;;;27.30;46.33
65157;BME280;52745;49.794;18.258;2022-07-29T13:42:15;98845.19;;;27.29;47.57